Terminal Aerodrome Forecast
Issued by NWS

Home | Current Version | Previous Version | Text Only | Print | Product List | Glossary On
Versions: 1 2 3 4 5 6 7 8 9 10 11 12 13 14 15
129
FTAK31 PAJN 220528
TAFAJN
TAF
PAJN 220528Z 2206/2306 VRB03KT P6SM FEW080
     FM222100 10010KT P6SM BKN060
     FM230300 09006KT P6SM VCSH SCT025 OVC040=

USA.gov is the U.S. government's official web portal to all federal, state and local government web resources and services.